Time;durP1;ratioP1;P1;durP2;ratioP2;P2;SDS_P1;SDS_P2;PMS_P1;PMS_P2;Temp;Humidity;BMP_temperature;BMP_pressure;BME280_temperature;BME280_humidity;BME280_pressure;Samples;Min_cycle;Max_cycle;Signal;HPM_P1;HPM_P2
2022/06/12 00:01:19;;;;;;;1.77;1.23;;;;;;;;;;5081726;28;20024;-63
2022/06/12 00:03:44;;;;;;;2.78;1.45;;;;;;;;;;5084569;28;20067;-64
2022/06/12 00:06:10;;;;;;;3.85;1.50;;;;;;;;;;5086804;28;20051;-64
2022/06/12 00:08:38;;;;;;;3.67;1.13;;;;;;;;;;5085757;28;20175;-64
2022/06/12 00:11:07;;;;;;;3.55;1.40;;;;;;;;;;5083433;28;20124;-64
2022/06/12 00:13:37;;;;;;;3.08;1.52;;;;;;;;;;5088372;28;20524;-64
2022/06/12 00:16:05;;;;;;;4.40;1.20;;;;;;;;;;5090906;28;20090;-63
2022/06/12 00:18:30;;;;;;;5.38;1.40;;;;;;;;;;5092780;28;20390;-64
2022/06/12 00:21:11;;;;;;;3.63;1.20;;;;;;;;;;5079899;28;20768;-64
2022/06/12 00:23:43;;;;;;;3.17;1.48;;;;;;;;;;5086772;28;20085;-63
2022/06/12 00:26:09;;;;;;;4.82;1.35;;;;;;;;;;5082433;28;20032;-64
2022/06/12 00:28:35;;;;;;;3.88;1.50;;;;;;;;;;5083343;28;20030;-64
2022/06/12 00:31:00;;;;;;;3.90;1.20;;;;;;;;;;5084633;28;20016;-63
2022/06/12 00:33:26;;;;;;;4.28;1.38;;;;;;;;;;5087876;28;20147;-63
2022/06/12 00:35:51;;;;;;;4.38;1.33;;;;;;;;;;5086690;28;20040;-63
2022/06/12 00:38:17;;;;;;;2.47;1.52;;;;;;;;;;5087604;28;20086;-63
2022/06/12 00:40:42;;;;;;;5.60;1.65;;;;;;;;;;5087901;28;20016;-64
2022/06/12 00:43:08;;;;;;;3.25;1.38;;;;;;;;;;5082494;28;20473;-63
2022/06/12 00:45:33;;;;;;;4.32;1.65;;;;;;;;;;5087520;28;20024;-66
2022/06/12 00:48:05;;;;;;;2.28;1.38;;;;;;;;;;5085015;28;20556;-64
2022/06/12 00:50:31;;;;;;;3.58;1.30;;;;;;;;;;5083688;28;20541;-63
2022/06/12 00:52:57;;;;;;;2.47;1.30;;;;;;;;;;5086211;28;20040;-63
2022/06/12 00:55:37;;;;;;;2.95;1.10;;;;;;;;;;5085299;28;20032;-63
2022/06/12 00:58:07;;;;;;;3.45;1.35;;;;;;;;;;5080484;28;20528;-64
2022/06/12 01:00:33;;;;;;;2.55;1.40;;;;;;;;;;5083743;28;20057;-64
2022/06/12 01:02:59;;;;;;;3.42;1.20;;;;;;;;;;5081917;28;20057;-64
2022/06/12 01:08:11;;;;;;;5.10;1.40;;;;;;;;;;5083891;28;20058;-63
2022/06/12 01:10:40;;;;;;;4.97;1.45;;;;;;;;;;5074542;28;20048;-63
2022/06/12 01:13:18;;;;;;;2.50;1.27;;;;;;;;;;5068214;28;20058;-63
2022/06/12 01:15:48;;;;;;;4.82;1.50;;;;;;;;;;5067506;28;20067;-64
2022/06/12 01:18:17;;;;;;;6.43;1.55;;;;;;;;;;5084681;28;20032;-64
2022/06/12 01:21:05;;;;;;;6.30;2.33;;;;;;;;;;5083814;28;20029;-64
2022/06/12 01:23:59;;;;;;;4.35;1.20;;;;;;;;;;5084223;28;20046;-64
2022/06/12 01:26:52;;;;;;;3.50;1.55;;;;;;;;;;5081789;28;20048;-64
2022/06/12 01:29:50;;;;;;;2.97;1.60;;;;;;;;;;5086231;28;20029;-63
2022/06/12 01:32:29;;;;;;;5.28;1.58;;;;;;;;;;5071788;28;20040;-65
2022/06/12 01:35:10;;;;;;;2.95;1.45;;;;;;;;;;5088356;28;20089;-64
2022/06/12 01:37:49;;;;;;;3.63;1.30;;;;;;;;;;5081819;28;20028;-63
2022/06/12 01:40:44;;;;;;;3.65;1.25;;;;;;;;;;5091480;28;20378;-63
2022/06/12 01:43:21;;;;;;;4.90;2.15;;;;;;;;;;5071229;28;20047;-63
2022/06/12 01:46:07;;;;;;;6.72;1.55;;;;;;;;;;5078382;28;20070;-63
2022/06/12 01:48:44;;;;;;;4.00;1.42;;;;;;;;;;5086161;28;20031;-64
2022/06/12 01:51:27;;;;;;;2.95;1.30;;;;;;;;;;5084876;28;20063;-64
2022/06/12 01:54:11;;;;;;;4.32;1.50;;;;;;;;;;5079813;28;20045;-63
2022/06/12 01:56:44;;;;;;;2.55;1.30;;;;;;;;;;5081091;28;20047;-64
2022/06/12 01:59:38;;;;;;;4.93;1.65;;;;;;;;;;5085770;28;20150;-63
2022/06/12 02:02:36;;;;;;;2.72;1.30;;;;;;;;;;5084221;28;20119;-63
2022/06/12 02:05:16;;;;;;;6.40;1.80;;;;;;;;;;5077090;28;20112;-63
2022/06/12 02:08:03;;;;;;;4.85;1.45;;;;;;;;;;5096245;28;20128;-64
2022/06/12 02:10:35;;;;;;;8.07;1.67;;;;;;;;;;5083372;28;20092;-63
2022/06/12 02:13:14;;;;;;;6.40;1.98;;;;;;;;;;5082327;28;20031;-64
2022/06/12 02:16:03;;;;;;;5.57;1.50;;;;;;;;;;5077806;28;20686;-63
2022/06/12 02:18:35;;;;;;;7.43;1.85;;;;;;;;;;5084884;28;20040;-63
2022/06/12 02:21:10;;;;;;;5.95;1.90;;;;;;;;;;5079128;28;20645;-63
2022/06/12 02:23:45;;;;;;;5.13;1.67;;;;;;;;;;5086681;28;20775;-63
2022/06/12 02:26:15;;;;;;;5.97;1.90;;;;;;;;;;5086358;28;20059;-63
2022/06/12 02:28:51;;;;;;;6.35;1.75;;;;;;;;;;5087170;28;20123;-63
2022/06/12 02:31:21;;;;;;;7.15;1.90;;;;;;;;;;5079363;28;20028;-63
2022/06/12 02:33:52;;;;;;;6.13;2.13;;;;;;;;;;5083854;28;20040;-63
2022/06/12 02:36:24;;;;;;;7.60;2.13;;;;;;;;;;5085279;28;20044;-64
2022/06/12 02:39:17;;;;;;;5.93;1.70;;;;;;;;;;5085747;28;20730;-63
2022/06/12 02:41:58;;;;;;;6.97;1.90;;;;;;;;;;5085588;28;20042;-63
2022/06/12 02:44:46;;;;;;;6.93;1.80;;;;;;;;;;5080811;28;20050;-64
2022/06/12 02:47:22;;;;;;;4.18;1.77;;;;;;;;;;5076867;28;20514;-63
2022/06/12 02:49:50;;;;;;;5.07;2.00;;;;;;;;;;5080170;28;20020;-63
2022/06/12 02:52:15;;;;;;;4.03;1.70;;;;;;;;;;5086902;28;20031;-63
2022/06/12 02:54:47;;;;;;;4.20;1.85;;;;;;;;;;5083128;28;20036;-63
2022/06/12 02:57:20;;;;;;;4.72;1.65;;;;;;;;;;5083101;28;20052;-63
2022/06/12 03:00:07;;;;;;;8.00;2.08;;;;;;;;;;5081857;28;20045;-64
2022/06/12 03:02:51;;;;;;;5.80;2.15;;;;;;;;;;5080581;28;20032;-64
2022/06/12 03:05:24;;;;;;;3.50;1.63;;;;;;;;;;5081669;28;20086;-63
2022/06/12 03:07:52;;;;;;;;;;;;;;;;;;5085801;28;20028;-63
2022/06/12 03:10:21;;;;;;;6.55;1.85;;;;;;;;;;5087065;28;19984;-63
2022/06/12 03:12:48;;;;;;;4.45;1.85;;;;;;;;;;5083627;28;20127;-63
2022/06/12 03:15:41;;;;;;;4.10;1.92;;;;;;;;;;5081563;28;20119;-63
2022/06/12 03:18:11;;;;;;;8.88;1.98;;;;;;;;;;5085203;28;20189;-63
2022/06/12 03:21:02;;;;;;;6.55;1.75;;;;;;;;;;5082284;28;20040;-63
2022/06/12 03:23:34;;;;;;;5.65;1.80;;;;;;;;;;5047081;28;20120;-63
2022/06/12 03:26:04;;;;;;;7.63;1.92;;;;;;;;;;5081121;28;20025;-63
2022/06/12 03:28:47;;;;;;;2.15;1.40;;;;;;;;;;5085031;28;20020;-63
2022/06/12 03:31:40;;;;;;;4.50;2.05;;;;;;;;;;5079184;28;20040;-63
2022/06/12 03:34:17;;;;;;;5.00;1.80;;;;;;;;;;5075748;28;20124;-63
2022/06/12 03:36:53;;;;;;;4.47;1.40;;;;;;;;;;5079686;28;20072;-63
2022/06/12 03:39:45;;;;;;;6.18;1.52;;;;;;;;;;5086186;28;20040;-63
2022/06/12 03:42:22;;;;;;;8.32;1.90;;;;;;;;;;5085971;28;20032;-63
2022/06/12 03:45:12;;;;;;;7.32;2.50;;;;;;;;;;5080054;28;20416;-63
2022/06/12 03:47:53;;;;;;;7.70;1.90;;;;;;;;;;5081225;28;20043;-63
2022/06/12 03:50:59;;;;;;;5.90;1.92;;;;;;;;;;5084518;28;20089;-63
2022/06/12 03:53:35;;;;;;;5.93;2.05;;;;;;;;;;5020071;28;20522;-63
2022/06/12 03:59:15;;;;;;;3.97;1.83;;;;;;;;;;5084341;28;20098;-64
2022/06/12 04:01:42;;;;;;;4.47;2.00;;;;;;;;;;5085589;28;20035;-63
2022/06/12 04:04:08;;;;;;;6.78;2.03;;;;;;;;;;5081813;28;20477;-63
2022/06/12 04:06:34;;;;;;;7.35;2.10;;;;;;;;;;5083644;28;20500;-63
2022/06/12 04:09:04;;;;;;;6.53;2.15;;;;;;;;;;5083736;28;20040;-63
2022/06/12 04:11:32;;;;;;;7.15;1.80;;;;;;;;;;5081598;28;20135;-63
2022/06/12 04:13:59;;;;;;;5.20;2.50;;;;;;;;;;5087157;28;20043;-63
2022/06/12 04:16:34;;;;;;;5.05;2.08;;;;;;;;;;5086897;28;20081;-63
2022/06/12 04:19:03;;;;;;;7.00;2.33;;;;;;;;;;5083279;28;20078;-63
2022/06/12 04:21:31;;;;;;;5.38;2.00;;;;;;;;;;5077409;28;20164;-63
2022/06/12 04:24:12;;;;;;;7.10;1.88;;;;;;;;;;5088236;28;20138;-63
2022/06/12 04:26:41;;;;;;;7.65;2.33;;;;;;;;;;5088606;28;20036;-63
2022/06/12 04:29:19;;;;;;;5.43;2.15;;;;;;;;;;5082529;28;20533;-63
2022/06/12 04:31:47;;;;;;;9.52;2.10;;;;;;;;;;5085376;28;20080;-63
2022/06/12 04:34:13;;;;;;;6.28;1.90;;;;;;;;;;5087103;28;20012;-63
2022/06/12 04:36:39;;;;;;;6.07;2.20;;;;;;;;;;5084233;28;20124;-63
2022/06/12 04:39:06;;;;;;;6.18;2.10;;;;;;;;;;5087599;28;20118;-64
2022/06/12 04:41:35;;;;;;;6.18;2.30;;;;;;;;;;5086536;28;20111;-64
2022/06/12 04:44:01;;;;;;;5.00;2.05;;;;;;;;;;5086179;28;20036;-63
2022/06/12 04:46:26;;;;;;;5.15;1.90;;;;;;;;;;5087744;28;20026;-63
2022/06/12 04:48:55;;;;;;;8.02;2.42;;;;;;;;;;5088738;28;20032;-64
2022/06/12 04:51:20;;;;;;;6.20;2.53;;;;;;;;;;5088935;28;20478;-63
2022/06/12 04:53:47;;;;;;;8.98;2.67;;;;;;;;;;5086451;28;20123;-63
2022/06/12 04:56:15;;;;;;;8.73;2.20;;;;;;;;;;5088885;28;20467;-63
2022/06/12 04:58:40;;;;;;;8.77;2.78;;;;;;;;;;5082573;28;20495;-63
2022/06/12 05:01:07;;;;;;;7.57;2.50;;;;;;;;;;5081911;28;20508;-63
2022/06/12 05:03:33;;;;;;;6.28;2.40;;;;;;;;;;5087366;28;20044;-64
2022/06/12 05:05:59;;;;;;;7.25;2.50;;;;;;;;;;5087039;28;20683;-63
2022/06/12 05:08:25;;;;;;;8.57;2.70;;;;;;;;;;5088565;28;20032;-64
2022/06/12 05:10:51;;;;;;;11.65;2.70;;;;;;;;;;5087177;28;20024;-63
2022/06/12 05:13:16;;;;;;;11.07;3.67;;;;;;;;;;5089597;28;20019;-64
2022/06/12 05:15:44;;;;;;;12.13;3.13;;;;;;;;;;5083752;28;20043;-63
2022/06/12 05:18:12;;;;;;;7.93;2.92;;;;;;;;;;5086687;28;20059;-63
2022/06/12 05:20:38;;;;;;;14.98;3.17;;;;;;;;;;5083697;28;20127;-64
2022/06/12 05:23:04;;;;;;;10.93;3.13;;;;;;;;;;5085156;28;20128;-63
2022/06/12 05:25:31;;;;;;;9.68;3.25;;;;;;;;;;5087142;28;20062;-63
2022/06/12 05:27:57;;;;;;;11.32;2.78;;;;;;;;;;5083374;28;20067;-63
2022/06/12 05:30:27;;;;;;;15.20;3.13;;;;;;;;;;5084233;28;20035;-63
2022/06/12 05:32:54;;;;;;;12.65;3.10;;;;;;;;;;5084223;28;20539;-64
2022/06/12 05:35:21;;;;;;;11.18;2.88;;;;;;;;;;5083445;28;20036;-65
2022/06/12 05:37:47;;;;;;;9.60;3.13;;;;;;;;;;5086682;28;20508;-64
2022/06/12 05:40:16;;;;;;;14.48;3.28;;;;;;;;;;5088008;28;20016;-63
2022/06/12 05:42:42;;;;;;;8.07;3.17;;;;;;;;;;5085850;28;20051;-63
2022/06/12 05:45:12;;;;;;;14.00;3.58;;;;;;;;;;5085846;28;20449;-64
2022/06/12 05:48:04;;;;;;;13.00;3.13;;;;;;;;;;5085648;28;20035;-63
2022/06/12 05:50:32;;;;;;;16.63;2.97;;;;;;;;;;5074389;28;20028;-64
2022/06/12 05:52:58;;;;;;;21.52;3.50;;;;;;;;;;5086519;28;20840;-64
2022/06/12 05:55:24;;;;;;;12.30;3.38;;;;;;;;;;5082784;28;20027;-63
2022/06/12 05:57:49;;;;;;;11.10;3.20;;;;;;;;;;5086264;28;20028;-64
2022/06/12 06:00:19;;;;;;;15.38;3.92;;;;;;;;;;5084956;28;20590;-63
2022/06/12 06:02:44;;;;;;;11.15;3.30;;;;;;;;;;5086023;28;20046;-63
2022/06/12 06:05:10;;;;;;;17.13;3.45;;;;;;;;;;5075286;28;20525;-63
2022/06/12 06:07:37;;;;;;;12.05;3.25;;;;;;;;;;5074655;28;20394;-64
2022/06/12 06:10:04;;;;;;;11.25;2.97;;;;;;;;;;5080659;28;20035;-64
2022/06/12 06:12:29;;;;;;;16.05;3.58;;;;;;;;;;5083537;28;20580;-63
2022/06/12 06:14:55;;;;;;;14.55;3.40;;;;;;;;;;5079509;28;20176;-63
2022/06/12 06:17:21;;;;;;;12.45;3.78;;;;;;;;;;5087216;28;20119;-63
2022/06/12 06:19:46;;;;;;;15.57;4.00;;;;;;;;;;5082621;28;20031;-63
2022/06/12 06:22:16;;;;;;;14.20;3.40;;;;;;;;;;5080159;28;20090;-64
2022/06/12 06:24:42;;;;;;;17.70;3.50;;;;;;;;;;5082918;28;20084;-63
2022/06/12 06:27:09;;;;;;;14.85;4.43;;;;;;;;;;5085544;28;20067;-64
2022/06/12 06:29:34;;;;;;;13.70;3.67;;;;;;;;;;5080978;28;20032;-63
2022/06/12 06:31:59;;;;;;;18.15;4.57;;;;;;;;;;5074310;28;20024;-63
2022/06/12 06:34:25;;;;;;;16.58;4.07;;;;;;;;;;5083939;28;20035;-64
2022/06/12 06:36:50;;;;;;;14.07;4.50;;;;;;;;;;5074164;28;20044;-63
2022/06/12 06:39:15;;;;;;;16.98;4.55;;;;;;;;;;5066477;28;20029;-63
2022/06/12 06:41:41;;;;;;;12.13;4.50;;;;;;;;;;5076838;28;20037;-63
2022/06/12 06:46:50;;;;;;;18.73;4.63;;;;;;;;;;5077452;28;20027;-64
2022/06/12 06:49:15;;;;;;;19.67;4.68;;;;;;;;;;5079057;28;20028;-64
2022/06/12 06:51:40;;;;;;;15.40;4.10;;;;;;;;;;5080685;28;20032;-64
2022/06/12 06:54:06;;;;;;;22.10;5.63;;;;;;;;;;5077635;28;20036;-63
2022/06/12 06:56:32;;;;;;;13.43;4.38;;;;;;;;;;5077584;28;20072;-64
2022/06/12 06:58:57;;;;;;;21.05;5.30;;;;;;;;;;5067215;28;20090;-63
2022/06/12 07:01:23;;;;;;;20.45;5.40;;;;;;;;;;5078916;28;20016;-64
2022/06/12 07:03:48;;;;;;;12.52;4.63;;;;;;;;;;5081150;28;20040;-64
2022/06/12 07:06:15;;;;;;;14.20;4.82;;;;;;;;;;5067918;28;20044;-64
2022/06/12 07:08:42;;;;;;;18.13;4.80;;;;;;;;;;5077232;28;20043;-63
2022/06/12 07:11:07;;;;;;;16.13;5.47;;;;;;;;;;5080460;28;20036;-64
2022/06/12 07:13:33;;;;;;;21.67;5.70;;;;;;;;;;5081891;28;20389;-64
2022/06/12 07:15:58;;;;;;;18.85;5.40;;;;;;;;;;5075118;28;20374;-64
2022/06/12 07:18:23;;;;;;;19.33;5.90;;;;;;;;;;5078002;28;20032;-64
2022/06/12 07:20:54;;;;;;;17.42;5.25;;;;;;;;;;5076559;28;20055;-64
2022/06/12 07:23:21;;;;;;;14.55;5.03;;;;;;;;;;5076039;28;20048;-64
2022/06/12 07:25:53;;;;;;;15.13;5.72;;;;;;;;;;5080925;28;20016;-64
2022/06/12 07:28:19;;;;;;;20.00;5.50;;;;;;;;;;5073042;28;20028;-64
2022/06/12 07:30:45;;;;;;;19.08;5.47;;;;;;;;;;5074079;28;20079;-64
2022/06/12 07:33:11;;;;;;;16.88;5.50;;;;;;;;;;5074208;28;20048;-68
2022/06/12 07:35:38;;;;;;;16.85;5.60;;;;;;;;;;5081515;28;20046;-68
2022/06/12 07:38:04;;;;;;;18.05;6.18;;;;;;;;;;5079013;28;20048;-67
2022/06/12 07:40:36;;;;;;;20.10;6.05;;;;;;;;;;5079795;28;20013;-67
2022/06/12 07:43:01;;;;;;;17.05;6.05;;;;;;;;;;5081187;28;20057;-67
2022/06/12 07:45:27;;;;;;;13.85;5.57;;;;;;;;;;5072366;28;20051;-67
2022/06/12 07:47:52;;;;;;;15.15;5.78;;;;;;;;;;5079126;28;20508;-67
2022/06/12 07:50:18;;;;;;;17.00;5.25;;;;;;;;;;5083426;28;20202;-67
2022/06/12 07:52:44;;;;;;;21.85;5.95;;;;;;;;;;5082198;28;20016;-67
2022/06/12 07:55:14;;;;;;;19.38;5.15;;;;;;;;;;5088268;28;20028;-67
2022/06/12 07:57:40;;;;;;;20.08;5.10;;;;;;;;;;5085490;28;20118;-67
2022/06/12 08:00:07;;;;;;;13.48;4.78;;;;;;;;;;5090476;28;20147;-67
2022/06/12 08:02:32;;;;;;;18.30;6.32;;;;;;;;;;5085418;28;20088;-67
2022/06/12 08:04:57;;;;;;;16.00;5.13;;;;;;;;;;5082093;28;20571;-68
2022/06/12 08:07:23;;;;;;;20.05;5.30;;;;;;;;;;5077499;28;20095;-68
2022/06/12 08:09:48;;;;;;;17.02;5.25;;;;;;;;;;5086056;28;20042;-67
2022/06/12 08:12:14;;;;;;;11.73;3.50;;;;;;;;;;5080646;28;20063;-67
2022/06/12 08:14:39;;;;;;;12.25;3.72;;;;;;;;;;5078961;28;20432;-67
2022/06/12 08:17:05;;;;;;;9.80;3.40;;;;;;;;;;5081843;28;20075;-68
2022/06/12 08:22:16;;;;;;;9.50;3.70;;;;;;;;;;5079079;28;20054;-67
2022/06/12 08:24:42;;;;;;;13.38;3.70;;;;;;;;;;5080083;28;20105;-68
2022/06/12 08:27:08;;;;;;;11.20;3.40;;;;;;;;;;5084889;28;20044;-68
2022/06/12 08:29:34;;;;;;;9.13;3.45;;;;;;;;;;5084061;28;20085;-67
2022/06/12 08:32:10;;;;;;;12.55;3.28;;;;;;;;;;5083184;28;20036;-67
2022/06/12 08:34:44;;;;;;;14.73;4.22;;;;;;;;;;5085953;28;20107;-68
2022/06/12 08:37:15;;;;;;;7.75;3.00;;;;;;;;;;5079072;28;20035;-67
2022/06/12 08:39:41;;;;;;;9.27;3.33;;;;;;;;;;5079550;28;20733;-67
2022/06/12 08:42:24;;;;;;;13.25;3.47;;;;;;;;;;5086949;28;20123;-68
2022/06/12 08:44:54;;;;;;;11.95;3.42;;;;;;;;;;5082702;28;20040;-67
2022/06/12 08:47:32;;;;;;;9.02;3.20;;;;;;;;;;5082498;28;20115;-67
2022/06/12 08:50:12;;;;;;;10.13;3.88;;;;;;;;;;5071427;28;20051;-68
2022/06/12 08:52:42;;;;;;;14.85;4.38;;;;;;;;;;5074681;28;20029;-68
2022/06/12 08:55:19;;;;;;;14.00;3.55;;;;;;;;;;5079061;28;20588;-67
2022/06/12 08:58:02;;;;;;;10.18;3.60;;;;;;;;;;5081701;28;20485;-67
2022/06/12 09:00:32;;;;;;;6.82;3.20;;;;;;;;;;5073914;28;20573;-68
2022/06/12 09:02:58;;;;;;;6.85;3.00;;;;;;;;;;5074719;28;20093;-68
2022/06/12 09:05:34;;;;;;;9.27;3.20;;;;;;;;;;5074119;28;20052;-68
2022/06/12 09:08:16;;;;;;;10.40;3.63;;;;;;;;;;5069408;28;20068;-68
2022/06/12 09:10:52;;;;;;;12.07;3.72;;;;;;;;;;5077056;28;20564;-68
2022/06/12 09:13:29;;;;;;;10.55;3.50;;;;;;;;;;5069793;28;20035;-68
2022/06/12 09:16:13;;;;;;;14.43;4.00;;;;;;;;;;5066866;28;20040;-68
2022/06/12 09:18:38;;;;;;;;;;;;;;;;;;5072481;28;20043;-68
2022/06/12 09:21:13;;;;;;;11.70;3.33;;;;;;;;;;5069739;28;20236;-68
2022/06/12 09:23:58;;;;;;;14.05;3.40;;;;;;;;;;5072896;28;20162;-68
2022/06/12 09:26:33;;;;;;;7.80;2.60;;;;;;;;;;5071688;28;20032;-68
2022/06/12 09:29:10;;;;;;;12.70;3.92;;;;;;;;;;5071517;28;20055;-68
2022/06/12 09:31:47;;;;;;;17.52;4.35;;;;;;;;;;5073234;28;20576;-68
2022/06/12 09:34:40;;;;;;;13.82;3.80;;;;;;;;;;5074254;28;20980;-68
2022/06/12 09:40:12;;;;;;;12.20;3.63;;;;;;;;;;5082594;28;20486;-68
2022/06/12 09:42:53;;;;;;;9.57;3.85;;;;;;;;;;5082384;28;20028;-68
2022/06/12 09:45:42;;;;;;;13.35;3.70;;;;;;;;;;5080969;28;20047;-68
2022/06/12 09:48:19;;;;;;;10.85;3.13;;;;;;;;;;5069852;28;20125;-68
2022/06/12 09:50:48;;;;;;;10.77;3.30;;;;;;;;;;5071830;28;20047;-69
2022/06/12 09:53:32;;;;;;;9.48;3.13;;;;;;;;;;5072062;28;20040;-68
2022/06/12 09:56:16;;;;;;;10.50;2.95;;;;;;;;;;5072971;28;20079;-68
2022/06/12 09:58:50;;;;;;;9.27;2.75;;;;;;;;;;5078141;28;20024;-69
2022/06/12 10:01:22;;;;;;;8.38;2.88;;;;;;;;;;5079032;28;20596;-68
2022/06/12 10:03:59;;;;;;;8.68;2.58;;;;;;;;;;5071325;28;20042;-68
2022/06/12 10:06:35;;;;;;;11.73;2.90;;;;;;;;;;5072476;28;20043;-69
2022/06/12 10:09:24;;;;;;;8.40;2.35;;;;;;;;;;5072098;28;20543;-69
2022/06/12 10:11:58;;;;;;;8.07;3.00;;;;;;;;;;5075983;28;20520;-69
2022/06/12 10:14:38;;;;;;;10.02;3.60;;;;;;;;;;5071891;28;22792;-68
2022/06/12 10:17:12;;;;;;;9.95;3.10;;;;;;;;;;5070134;28;20056;-68
2022/06/12 10:19:43;;;;;;;9.20;2.78;;;;;;;;;;5072453;28;20715;-68
2022/06/12 10:22:30;;;;;;;4.47;2.55;;;;;;;;;;5078640;28;20048;-68
2022/06/12 10:24:58;;;;;;;9.32;2.70;;;;;;;;;;5073358;28;20036;-68
2022/06/12 10:27:24;;;;;;;8.40;3.13;;;;;;;;;;5073411;28;20035;-68
2022/06/12 10:29:57;;;;;;;9.98;3.42;;;;;;;;;;5074519;28;20118;-69
2022/06/12 10:32:27;;;;;;;12.75;2.58;;;;;;;;;;5075668;28;20155;-68
2022/06/12 10:35:04;;;;;;;15.73;3.30;;;;;;;;;;5080481;28;21048;-68
2022/06/12 10:37:29;;;;;;;12.63;4.05;;;;;;;;;;5074939;28;20024;-68
2022/06/12 10:40:14;;;;;;;9.93;2.90;;;;;;;;;;5072646;28;20040;-68
2022/06/12 10:42:51;;;;;;;6.97;2.67;;;;;;;;;;5072669;28;20532;-66
2022/06/12 10:45:20;;;;;;;9.10;2.65;;;;;;;;;;5073996;28;20529;-65
2022/06/12 10:47:47;;;;;;;7.72;2.60;;;;;;;;;;5069862;28;20399;-66
2022/06/12 10:50:19;;;;;;;13.55;2.92;;;;;;;;;;5069035;28;20524;-66
2022/06/12 10:53:05;;;;;;;8.93;3.00;;;;;;;;;;5075131;28;20448;-66
2022/06/12 10:55:42;;;;;;;7.90;2.78;;;;;;;;;;5073724;28;20023;-66
2022/06/12 10:58:22;;;;;;;9.25;3.03;;;;;;;;;;5074171;28;20055;-66
2022/06/12 11:00:51;;;;;;;8.30;2.97;;;;;;;;;;5069928;28;20040;-66
2022/06/12 11:03:47;;;;;;;11.57;3.40;;;;;;;;;;5069898;28;20078;-65
2022/06/12 11:06:18;;;;;;;5.93;2.90;;;;;;;;;;5069176;28;20068;-65
2022/06/12 11:08:49;;;;;;;6.50;3.00;;;;;;;;;;5068884;28;20216;-65
2022/06/12 11:11:17;;;;;;;8.05;2.60;;;;;;;;;;5074004;28;20533;-65
2022/06/12 11:13:53;;;;;;;9.32;3.55;;;;;;;;;;5077230;28;20081;-65
2022/06/12 11:16:27;;;;;;;4.95;2.25;;;;;;;;;;5070701;28;20038;-66
2022/06/12 11:19:15;;;;;;;8.77;3.40;;;;;;;;;;5071955;28;20048;-66
2022/06/12 11:21:40;;;;;;;6.47;2.55;;;;;;;;;;5071269;28;20572;-66
2022/06/12 11:24:10;;;;;;;4.40;2.45;;;;;;;;;;5072727;28;20122;-65
2022/06/12 11:27:13;;;;;;;7.57;2.70;;;;;;;;;;5076109;28;20467;-65
2022/06/12 11:29:51;;;;;;;8.50;2.70;;;;;;;;;;5073277;28;20127;-65
2022/06/12 11:32:31;;;;;;;9.57;3.03;;;;;;;;;;5077896;28;20039;-68
2022/06/12 11:35:13;;;;;;;6.50;2.92;;;;;;;;;;5078363;28;20519;-68
2022/06/12 11:37:41;;;;;;;6.47;3.00;;;;;;;;;;5076625;28;20113;-68
2022/06/12 11:40:14;;;;;;;8.40;3.22;;;;;;;;;;5075794;28;20062;-68
2022/06/12 11:43:06;;;;;;;7.57;2.65;;;;;;;;;;5073144;28;20047;-68
2022/06/12 11:45:53;;;;;;;8.68;2.33;;;;;;;;;;5073051;28;20133;-68
2022/06/12 11:48:30;;;;;;;4.20;2.25;;;;;;;;;;5076484;28;20051;-68
2022/06/12 11:51:13;;;;;;;6.68;2.38;;;;;;;;;;5073784;28;20086;-68
2022/06/12 11:53:47;;;;;;;4.95;2.50;;;;;;;;;;5076087;28;20128;-67
2022/06/12 11:56:24;;;;;;;7.57;2.75;;;;;;;;;;5074392;28;20051;-68
2022/06/12 11:59:20;;;;;;;10.10;2.65;;;;;;;;;;5074238;28;20073;-68
2022/06/12 12:02:01;;;;;;;5.47;2.45;;;;;;;;;;5076399;28;20077;-68
2022/06/12 12:04:44;;;;;;;5.90;2.45;;;;;;;;;;5075987;28;20024;-68
2022/06/12 12:07:17;;;;;;;13.02;2.83;;;;;;;;;;5074989;28;20032;-68
2022/06/12 12:10:29;;;;;;;6.63;2.63;;;;;;;;;;5074146;28;20044;-68
2022/06/12 12:13:21;;;;;;;7.90;2.78;;;;;;;;;;5068533;28;20337;-68
2022/06/12 12:15:50;;;;;;;6.47;2.35;;;;;;;;;;5081759;28;20041;-68
2022/06/12 12:18:34;;;;;;;6.25;2.85;;;;;;;;;;5079520;28;20068;-68
2022/06/12 12:21:03;;;;;;;3.83;2.05;;;;;;;;;;5074133;28;20055;-68
2022/06/12 12:23:36;;;;;;;6.53;2.13;;;;;;;;;;5075379;28;20119;-68
2022/06/12 12:26:11;;;;;;;8.00;2.13;;;;;;;;;;5073075;28;20058;-68
2022/06/12 12:28:49;;;;;;;7.72;2.25;;;;;;;;;;5077017;28;20493;-68
2022/06/12 12:31:16;;;;;;;6.07;2.28;;;;;;;;;;5076509;28;20032;-68
2022/06/12 12:33:44;;;;;;;4.90;1.90;;;;;;;;;;5074802;28;20039;-68
2022/06/12 12:41:54;;;;;;;3.28;2.10;;;;;;;;;;5071040;28;20093;-68
2022/06/12 12:44:34;;;;;;;5.88;1.90;;;;;;;;;;5075321;28;20040;-68
2022/06/12 12:47:01;;;;;;;5.75;1.80;;;;;;;;;;5069743;28;20074;-68
2022/06/12 12:49:32;;;;;;;4.97;1.80;;;;;;;;;;5074452;28;20031;-68
2022/06/12 12:52:15;;;;;;;10.77;2.15;;;;;;;;;;5069074;28;20069;-68
2022/06/12 12:54:42;;;;;;;3.53;1.65;;;;;;;;;;5077140;28;20039;-68
2022/06/12 12:57:08;;;;;;;10.13;2.28;;;;;;;;;;5075461;28;20064;-68
2022/06/12 12:59:43;;;;;;;3.28;1.90;;;;;;;;;;5074680;28;20123;-69
2022/06/12 13:02:23;;;;;;;3.60;1.90;;;;;;;;;;5072192;28;20047;-68
2022/06/12 13:04:51;;;;;;;4.00;2.10;;;;;;;;;;5071655;28;20028;-68
2022/06/12 13:07:59;;;;;;;3.95;2.10;;;;;;;;;;5080340;28;20111;-68
2022/06/12 13:10:27;;;;;;;5.63;1.90;;;;;;;;;;5078370;28;20048;-68
2022/06/12 13:13:08;;;;;;;5.03;1.65;;;;;;;;;;5077833;28;20032;-68
2022/06/12 13:15:50;;;;;;;8.60;2.00;;;;;;;;;;5076313;28;20642;-68
2022/06/12 13:18:27;;;;;;;3.70;1.60;;;;;;;;;;5080684;28;20039;-68
2022/06/12 13:21:10;;;;;;;5.93;1.80;;;;;;;;;;5073967;28;20036;-68
2022/06/12 13:23:54;;;;;;;3.50;1.70;;;;;;;;;;5080717;28;20055;-68
2022/06/12 13:26:21;;;;;;;4.47;1.70;;;;;;;;;;5076497;28;20420;-68
2022/06/12 13:29:00;;;;;;;6.20;1.67;;;;;;;;;;5078413;28;20036;-68
2022/06/12 13:31:33;;;;;;;5.18;1.63;;;;;;;;;;5080086;28;20028;-68
2022/06/12 13:33:59;;;;;;;6.50;1.60;;;;;;;;;;5080379;28;20035;-68
2022/06/12 13:36:36;;;;;;;1.98;1.20;;;;;;;;;;5075455;28;20033;-68
2022/06/12 13:39:06;;;;;;;2.33;1.40;;;;;;;;;;5076259;28;20032;-68
2022/06/12 13:41:38;;;;;;;7.53;1.83;;;;;;;;;;5078121;28;20032;-69
2022/06/12 13:44:28;;;;;;;4.25;1.38;;;;;;;;;;5072692;28;20043;-68
2022/06/12 13:46:55;;;;;;;2.80;1.80;;;;;;;;;;5077318;28;20112;-68
2022/06/12 13:49:41;;;;;;;3.72;1.33;;;;;;;;;;5077517;28;20035;-68
2022/06/12 13:52:38;;;;;;;3.75;1.83;;;;;;;;;;5073916;28;20047;-68
2022/06/12 13:55:23;;;;;;;3.28;1.52;;;;;;;;;;5076197;28;20083;-68
2022/06/12 13:57:49;;;;;;;3.05;1.63;;;;;;;;;;5081729;28;20050;-69
2022/06/12 14:00:46;;;;;;;7.35;1.90;;;;;;;;;;5079495;28;20488;-68
2022/06/12 14:03:39;;;;;;;5.90;1.88;;;;;;;;;;5075014;28;20113;-68
2022/06/12 14:06:07;;;;;;;;;;;;;;;;;;5069223;28;20043;-69
2022/06/12 14:08:33;;;;;;;4.35;1.60;;;;;;;;;;5079684;28;19989;-68
2022/06/12 14:10:59;;;;;;;4.65;1.55;;;;;;;;;;5077910;28;20053;-69
2022/06/12 14:13:25;;;;;;;8.80;2.00;;;;;;;;;;5082867;28;20056;-68
2022/06/12 14:15:51;;;;;;;5.35;1.70;;;;;;;;;;5073104;28;20532;-68
2022/06/12 14:18:25;;;;;;;4.50;1.80;;;;;;;;;;5070685;28;20032;-68
2022/06/12 14:21:22;;;;;;;5.05;1.58;;;;;;;;;;5076659;28;20189;-68
2022/06/12 14:23:56;;;;;;;6.55;1.70;;;;;;;;;;5079649;28;20040;-68
2022/06/12 14:26:24;;;;;;;4.88;1.63;;;;;;;;;;5072947;28;20067;-69
2022/06/12 14:28:50;;;;;;;5.05;1.52;;;;;;;;;;5075922;28;20032;-69
2022/06/12 14:31:23;;;;;;;4.85;1.70;;;;;;;;;;5073110;28;20035;-68
2022/06/12 14:33:59;;;;;;;4.35;1.63;;;;;;;;;;5078428;28;20078;-69
2022/06/12 14:36:29;;;;;;;4.75;1.70;;;;;;;;;;5087318;28;20036;-69
2022/06/12 14:38:55;;;;;;;3.55;1.58;;;;;;;;;;5073588;28;20170;-68
2022/06/12 14:41:27;;;;;;;4.82;1.90;;;;;;;;;;5073479;28;20133;-69
2022/06/12 14:43:54;;;;;;;6.07;1.73;;;;;;;;;;5076497;28;20024;-68
2022/06/12 14:46:24;;;;;;;4.22;1.70;;;;;;;;;;5070145;28;20139;-69
2022/06/12 14:48:50;;;;;;;4.65;2.20;;;;;;;;;;5074917;28;20615;-69
2022/06/12 14:51:16;;;;;;;3.33;1.75;;;;;;;;;;5076692;28;20033;-69
2022/06/12 14:53:41;;;;;;;6.32;1.80;;;;;;;;;;5077316;28;20067;-69
2022/06/12 14:56:32;;;;;;;5.30;2.15;;;;;;;;;;5080504;28;20036;-70
2022/06/12 14:58:58;;;;;;;3.70;1.88;;;;;;;;;;5077247;28;20036;-69
2022/06/12 15:01:24;;;;;;;4.13;2.40;;;;;;;;;;5075707;28;20158;-69
2022/06/12 15:03:54;;;;;;;5.57;2.40;;;;;;;;;;5077461;28;20677;-69
2022/06/12 15:06:20;;;;;;;4.72;2.20;;;;;;;;;;5084037;28;20036;-70
2022/06/12 15:08:47;;;;;;;8.70;4.45;;;;;;;;;;5086631;28;20036;-69
2022/06/12 15:11:25;;;;;;;8.05;2.33;;;;;;;;;;5072039;28;20536;-70
2022/06/12 15:13:54;;;;;;;5.30;1.75;;;;;;;;;;5071628;28;20085;-69
2022/06/12 15:16:19;;;;;;;5.00;2.33;;;;;;;;;;5079361;28;20038;-67
2022/06/12 15:18:45;;;;;;;5.68;2.25;;;;;;;;;;5078015;28;20128;-67
2022/06/12 15:21:15;;;;;;;4.00;1.90;;;;;;;;;;5074450;28;20048;-68
2022/06/12 15:23:40;;;;;;;4.55;2.03;;;;;;;;;;5077172;28;20032;-68
2022/06/12 15:31:33;;;;;;;4.53;1.30;;;;;;;;;;5078033;28;20031;-68
2022/06/12 15:33:59;;;;;;;2.95;1.33;;;;;;;;;;5079415;28;20040;-68
2022/06/12 15:36:24;;;;;;;3.20;1.83;;;;;;;;;;5069636;28;20409;-69
2022/06/12 15:38:49;;;;;;;5.30;1.63;;;;;;;;;;5079713;28;20241;-69
2022/06/12 15:41:18;;;;;;;3.28;1.60;;;;;;;;;;5078567;28;22519;-69